Marapanim, Brazil
Current Conditions -  °F | °C
As of 7:00 PM on Saturday 25 Oct 2014 (Local Time) from SBBE Reporting Station
Light Rain Light Rain  
Wind Chill: 81°   Ceiling: 2000
Heat Index: 86°   Visibility: 6mi
Dew Point: 75°   Wind: 14mph
Humidity: 84%   Direction: 60°ENE
Pressure: 29.77"   Gusts: NA
Location:  0.72°S, 47.7°W
Report Text: SBBE 252200Z 06012KT 9999 -RA SCT015 BKN020 27/24 Q1008
Loading
Personal Weather Stations






























Interactive Weather Map
Tropical Storm Tracking
New forecast layout! Learn more

10-Day Weather Forecast

Advertisements
Track Severe Weather on mobile